createdAt,value
2016-03-21T00:00:10.067Z,953.13
2016-03-21T00:01:10.069Z,953.14
2016-03-21T00:02:10.088Z,953.12
2016-03-21T00:03:10.091Z,953.14
2016-03-21T00:04:10.109Z,953.14
2016-03-21T00:05:10.127Z,953.09
2016-03-21T00:06:10.129Z,953.16
2016-03-21T00:07:10.148Z,953.16
2016-03-21T00:08:10.150Z,953.11
2016-03-21T00:09:10.169Z,953.12
2016-03-21T00:10:10.172Z,953.12
2016-03-21T00:11:10.190Z,953.16
2016-03-21T00:12:10.193Z,953.16
2016-03-21T00:13:10.211Z,953.11
2016-03-21T00:14:10.213Z,953.15
2016-03-21T00:15:10.232Z,953.13
2016-03-21T00:16:10.251Z,953.12
2016-03-21T00:17:10.253Z,953.1
2016-03-21T00:18:10.271Z,953.13
2016-03-21T00:19:10.274Z,953.14
2016-03-21T00:20:10.293Z,953.1
2016-03-21T00:21:10.296Z,953.06
2016-03-21T00:22:10.313Z,953.09
2016-03-21T00:23:10.332Z,953.07
2016-03-21T00:24:10.334Z,953.09
2016-03-21T00:25:10.337Z,953.06
2016-03-21T00:26:10.355Z,953.07
2016-03-21T00:27:10.359Z,953.07
2016-03-21T00:28:10.376Z,953.04
2016-03-21T00:29:10.395Z,953.04
2016-03-21T00:30:10.413Z,953.05
2016-03-21T00:31:10.416Z,953.1
2016-03-21T00:32:10.419Z,953.1
2016-03-21T00:33:10.437Z,953.12
2016-03-21T00:34:10.439Z,953.12
2016-03-21T00:35:10.458Z,953.15
2016-03-21T00:36:10.460Z,953.13
2016-03-21T00:37:10.478Z,953.11
2016-03-21T00:38:10.481Z,953.13
2016-03-21T00:39:10.500Z,953.12
2016-03-21T00:40:10.503Z,953.1
2016-03-21T00:41:10.521Z,953.06
2016-03-21T00:42:10.524Z,953.09
2016-03-21T00:43:10.541Z,953.09
2016-03-21T00:44:10.544Z,953.05
2016-03-21T00:45:10.563Z,953.04
2016-03-21T00:46:10.581Z,953.04
2016-03-21T00:47:10.584Z,953.01
2016-03-21T00:48:10.602Z,953.01
2016-03-21T00:49:10.605Z,952.97
2016-03-21T00:50:10.623Z,952.95
2016-03-21T00:51:10.626Z,952.94
2016-03-21T00:52:10.643Z,952.94
2016-03-21T00:53:10.662Z,952.88
2016-03-21T00:54:10.665Z,952.87
2016-03-21T00:55:10.668Z,952.9
2016-03-21T00:56:10.687Z,952.9
2016-03-21T00:57:10.689Z,952.94
2016-03-21T00:58:10.707Z,952.96
2016-03-21T00:59:10.726Z,952.96
2016-03-21T01:00:10.728Z,952.96
2016-03-21T01:01:10.747Z,952.94
2016-03-21T01:02:10.749Z,952.99
2016-03-21T01:03:10.767Z,952.94
2016-03-21T01:04:10.770Z,953
2016-03-21T01:05:10.789Z,953.02
2016-03-21T01:06:10.822Z,953.04
2016-03-21T01:07:10.809Z,953.04
2016-03-21T01:08:10.812Z,953.01
2016-03-21T01:09:10.830Z,953.01
2016-03-21T01:10:10.833Z,953
2016-03-21T01:11:10.852Z,953
2016-03-21T01:12:10.869Z,952.97
2016-03-21T01:13:10.888Z,952.91
2016-03-21T01:14:13.063Z,952.88
2016-03-21T01:15:10.893Z,952.89
2016-03-21T01:16:10.927Z,952.9
2016-03-21T01:17:10.915Z,952.9
2016-03-21T01:18:10.933Z,952.88
2016-03-21T01:19:10.935Z,952.88
2016-03-21T01:20:10.954Z,952.9
2016-03-21T01:21:10.957Z,952.89
2016-03-21T01:22:10.975Z,952.85
2016-03-21T01:23:10.977Z,952.84
2016-03-21T01:24:10.995Z,952.82
2016-03-21T01:25:11.015Z,952.81
2016-03-21T01:26:11.017Z,952.88
2016-03-21T01:27:11.035Z,952.85
2016-03-21T01:28:11.038Z,952.85
2016-03-21T01:29:11.056Z,952.8
2016-03-21T01:30:11.059Z,952.83
2016-03-21T01:31:11.078Z,952.84
2016-03-21T01:32:11.081Z,952.81
2016-03-21T01:33:11.098Z,952.78
2016-03-21T01:34:11.101Z,952.78
2016-03-21T01:35:11.151Z,952.79
2016-03-21T01:36:11.137Z,952.84
2016-03-21T01:37:11.140Z,952.83
2016-03-21T01:38:11.159Z,952.83
2016-03-21T01:39:11.177Z,952.84
2016-03-21T01:40:11.180Z,952.82
2016-03-21T01:41:11.183Z,952.78
2016-03-21T01:42:11.200Z,952.76
2016-03-21T01:43:11.203Z,952.77
2016-03-21T01:44:11.222Z,952.75
2016-03-21T01:45:11.240Z,952.75
2016-03-21T01:46:11.243Z,952.74
2016-03-21T01:47:11.246Z,952.7
2016-03-21T01:48:11.279Z,952.68
2016-03-21T01:49:11.282Z,952.7
2016-03-21T01:50:11.285Z,952.7
2016-03-21T01:51:11.303Z,952.68
2016-03-21T01:52:11.306Z,952.69
2016-03-21T01:53:11.325Z,952.66
2016-03-21T01:54:11.327Z,952.76
2016-03-21T01:55:11.346Z,952.75
2016-03-21T01:56:11.349Z,952.74
2016-03-21T01:57:11.366Z,952.71
2016-03-21T01:58:11.369Z,952.74
2016-03-21T01:59:11.388Z,952.77
2016-03-21T02:00:11.390Z,952.74
2016-03-21T02:01:11.408Z,952.74
2016-03-21T02:02:11.427Z,952.72
2016-03-21T02:03:11.429Z,952.69
2016-03-21T02:04:11.448Z,952.65
2016-03-21T02:05:11.450Z,952.61
2016-03-21T02:06:11.468Z,952.64
2016-03-21T02:07:11.471Z,952.61
2016-03-21T02:08:11.489Z,952.64
2016-03-21T02:09:11.493Z,952.64
2016-03-21T02:10:11.511Z,952.63
2016-03-21T02:11:11.513Z,952.61
2016-03-21T02:12:11.531Z,952.67
2016-03-21T02:13:11.534Z,952.64
2016-03-21T02:14:11.553Z,952.69
2016-03-21T02:15:11.556Z,952.74
2016-03-21T02:16:11.575Z,952.72
2016-03-21T02:17:11.577Z,952.67
2016-03-21T02:18:11.594Z,952.72
2016-03-21T02:19:11.598Z,952.7
2016-03-21T02:20:11.616Z,952.65
2016-03-21T02:21:11.634Z,952.61
2016-03-21T02:22:11.636Z,952.57
2016-03-21T02:23:11.655Z,952.52
2016-03-21T02:24:11.658Z,952.49
2016-03-21T02:25:11.676Z,952.48
2016-03-21T02:26:11.679Z,952.53
2016-03-21T02:27:11.697Z,952.51
2016-03-21T02:28:11.699Z,952.53
2016-03-21T02:29:11.718Z,952.52
2016-03-21T02:30:11.720Z,952.52
2016-03-21T02:31:11.740Z,952.53
2016-03-21T02:32:11.757Z,952.5
2016-03-21T02:33:11.759Z,952.48
2016-03-21T02:34:11.778Z,952.45
2016-03-21T02:35:11.781Z,952.46
2016-03-21T02:36:11.799Z,952.48
2016-03-21T02:37:11.802Z,952.47
2016-03-21T02:38:11.805Z,952.5
2016-03-21T02:39:11.823Z,952.49
2016-03-21T02:40:11.825Z,952.48
2016-03-21T02:41:11.845Z,952.45
2016-03-21T02:42:11.862Z,952.5
2016-03-21T02:43:11.865Z,952.43
2016-03-21T02:44:11.883Z,952.44
2016-03-21T02:45:11.902Z,952.47
2016-03-21T02:46:11.905Z,952.46
2016-03-21T02:47:11.907Z,952.51
2016-03-21T02:48:11.926Z,952.5
2016-03-21T02:49:11.928Z,952.59
2016-03-21T02:50:11.947Z,952.55
2016-03-21T02:51:11.949Z,952.55
2016-03-21T02:52:11.967Z,952.55
2016-03-21T02:53:11.970Z,952.57
2016-03-21T02:54:11.988Z,952.54
2016-03-21T02:55:11.991Z,952.59
2016-03-21T02:56:12.009Z,952.58
2016-03-21T02:57:12.013Z,952.62
2016-03-21T02:58:12.030Z,952.6
2016-03-21T02:59:12.049Z,952.62
2016-03-21T03:00:12.052Z,952.65
2016-03-21T03:01:12.070Z,952.62
2016-03-21T03:02:12.073Z,952.69
2016-03-21T03:03:12.091Z,952.69
2016-03-21T03:04:12.094Z,952.73
2016-03-21T03:05:12.112Z,952.68
2016-03-21T03:06:12.129Z,952.7
2016-03-21T03:07:12.117Z,952.7
2016-03-21T03:08:12.134Z,952.7
2016-03-21T03:09:12.136Z,952.69
2016-03-21T03:10:12.156Z,952.66
2016-03-21T03:11:12.174Z,952.71
2016-03-21T03:12:12.177Z,952.68
2016-03-21T03:13:12.194Z,952.7
2016-03-21T03:14:12.197Z,952.7
2016-03-21T03:15:12.216Z,952.66
2016-03-21T03:16:12.219Z,952.69
2016-03-21T03:17:12.221Z,952.66
2016-03-21T03:18:12.239Z,952.69
2016-03-21T03:19:12.258Z,952.64
2016-03-21T03:20:12.291Z,952.67
2016-03-21T03:21:12.279Z,952.66
2016-03-21T03:22:12.282Z,952.64
2016-03-21T03:23:12.299Z,952.64
2016-03-21T03:24:12.302Z,952.64
2016-03-21T03:25:12.320Z,952.67
2016-03-21T03:26:12.324Z,952.66
2016-03-21T03:27:12.357Z,952.65
2016-03-21T03:28:12.344Z,952.66
2016-03-21T03:29:12.362Z,952.64
2016-03-21T03:30:12.365Z,952.6
2016-03-21T03:31:12.384Z,952.61
2016-03-21T03:32:12.403Z,952.61
2016-03-21T03:33:12.406Z,952.62
2016-03-21T03:34:12.423Z,952.58
2016-03-21T03:35:12.426Z,952.55
2016-03-21T03:36:12.444Z,952.58
2016-03-21T03:37:12.447Z,952.56
2016-03-21T03:38:12.465Z,952.58
2016-03-21T03:39:12.467Z,952.62
2016-03-21T03:40:12.470Z,952.58
2016-03-21T03:41:12.488Z,952.6
2016-03-21T03:42:12.492Z,952.64
2016-03-21T03:43:12.510Z,952.58
2016-03-21T03:44:12.528Z,952.58
2016-03-21T03:45:12.531Z,952.58
2016-03-21T03:46:12.549Z,952.6
2016-03-21T03:47:12.552Z,952.62
2016-03-21T03:48:12.586Z,952.62
2016-03-21T03:49:12.589Z,952.61
2016-03-21T03:50:12.591Z,952.62
2016-03-21T03:51:12.593Z,952.63
2016-03-21T03:52:12.612Z,952.61
2016-03-21T03:53:12.615Z,952.61
2016-03-21T03:54:12.632Z,952.65
2016-03-21T03:55:12.636Z,952.64
2016-03-21T03:56:12.654Z,952.65
2016-03-21T03:57:12.657Z,952.66
2016-03-21T03:58:12.675Z,952.58
2016-03-21T03:59:12.678Z,952.61
2016-03-21T04:00:12.696Z,952.62
2016-03-21T04:01:12.698Z,952.61
2016-03-21T04:02:12.717Z,952.64
2016-03-21T04:03:12.736Z,952.59
2016-03-21T04:04:12.739Z,952.62
2016-03-21T04:05:12.756Z,952.63
2016-03-21T04:06:12.759Z,952.59
2016-03-21T04:07:12.762Z,952.58
2016-03-21T04:08:12.780Z,952.58
2016-03-21T04:09:12.798Z,952.58
2016-03-21T04:10:12.800Z,952.58
2016-03-21T04:11:12.804Z,952.61
2016-03-21T04:12:12.822Z,952.6
2016-03-21T04:13:12.841Z,952.58
2016-03-21T04:14:12.843Z,952.6
2016-03-21T04:15:12.846Z,952.61
2016-03-21T04:16:12.864Z,952.63
2016-03-21T04:17:12.882Z,952.62
2016-03-21T04:18:12.886Z,952.62
2016-03-21T04:19:12.904Z,952.61
2016-03-21T04:20:12.906Z,952.61
2016-03-21T04:21:12.924Z,952.64
2016-03-21T04:22:12.927Z,952.63
2016-03-21T04:23:12.946Z,952.67
2016-03-21T04:24:12.948Z,952.65
2016-03-21T04:25:12.966Z,952.64
2016-03-21T04:26:12.969Z,952.68
2016-03-21T04:27:12.987Z,952.6
2016-03-21T04:28:12.990Z,952.63
2016-03-21T04:29:13.009Z,952.68
2016-03-21T04:30:13.011Z,952.64
2016-03-21T04:31:13.029Z,952.66
2016-03-21T04:32:13.031Z,952.69
2016-03-21T04:33:13.051Z,952.71
2016-03-21T04:34:13.053Z,952.72
2016-03-21T04:35:13.072Z,952.74
2016-03-21T04:36:13.074Z,952.72
2016-03-21T04:37:13.092Z,952.74
2016-03-21T04:38:13.111Z,952.72
2016-03-21T04:39:13.113Z,952.73
2016-03-21T04:40:13.117Z,952.71
2016-03-21T04:41:13.134Z,952.7
2016-03-21T04:42:13.137Z,952.68
2016-03-21T04:43:13.155Z,952.7
2016-03-21T04:44:13.158Z,952.71
2016-03-21T04:45:13.192Z,952.65
2016-03-21T04:46:13.179Z,952.68
2016-03-21T04:47:13.197Z,952.64
2016-03-21T04:48:13.200Z,952.69
2016-03-21T04:49:13.219Z,952.65
2016-03-21T04:50:13.237Z,952.66
2016-03-21T04:51:13.240Z,952.69
2016-03-21T04:52:13.243Z,952.69
2016-03-21T04:53:13.260Z,952.66
2016-03-21T04:54:13.279Z,952.66
2016-03-21T04:55:13.281Z,952.63
2016-03-21T04:56:13.299Z,952.67
2016-03-21T04:57:13.302Z,952.63
2016-03-21T04:58:13.304Z,952.61
2016-03-21T04:59:13.323Z,952.69
2016-03-21T05:00:13.326Z,952.64
2016-03-21T05:01:13.345Z,952.71
2016-03-21T05:02:13.347Z,952.67
2016-03-21T05:03:13.366Z,952.7
2016-03-21T05:04:13.368Z,952.68
2016-03-21T05:05:13.402Z,952.71
2016-03-21T05:06:13.390Z,952.72
2016-03-21T05:07:13.408Z,952.72
2016-03-21T05:08:13.411Z,952.72
2016-03-21T05:09:13.428Z,952.71
2016-03-21T05:10:13.431Z,952.72
2016-03-21T05:11:13.450Z,952.73
2016-03-21T05:12:13.453Z,952.78
2016-03-21T05:13:13.470Z,952.72
2016-03-21T05:14:13.489Z,952.76
2016-03-21T05:15:13.491Z,952.73
2016-03-21T05:16:13.510Z,952.75
2016-03-21T05:17:13.512Z,952.71
2016-03-21T05:18:13.531Z,952.75
2016-03-21T05:19:13.533Z,952.78
2016-03-21T05:20:13.551Z,952.77
2016-03-21T05:21:13.554Z,952.77
2016-03-21T05:22:13.573Z,952.78
2016-03-21T05:23:13.576Z,952.77
2016-03-21T05:24:13.593Z,952.75
2016-03-21T05:25:13.597Z,952.74
2016-03-21T05:26:13.615Z,952.74
2016-03-21T05:27:13.617Z,952.75
2016-03-21T05:28:13.635Z,952.74
2016-03-21T05:29:13.638Z,952.73
2016-03-21T05:30:13.657Z,952.76
2016-03-21T05:31:13.659Z,952.74
2016-03-21T05:32:13.678Z,952.76
2016-03-21T05:33:13.681Z,952.79
2016-03-21T05:34:13.715Z,952.75
2016-03-21T05:35:13.701Z,952.78
2016-03-21T05:36:13.720Z,952.78
2016-03-21T05:37:13.723Z,952.79
2016-03-21T05:38:13.741Z,952.8
2016-03-21T05:39:13.759Z,952.82
2016-03-21T05:40:13.762Z,952.85
2016-03-21T05:41:13.780Z,952.86
2016-03-21T05:42:13.783Z,952.83
2016-03-21T05:43:13.785Z,952.85
2016-03-21T05:44:13.820Z,952.87
2016-03-21T05:45:13.806Z,952.81
2016-03-21T05:46:13.825Z,952.86
2016-03-21T05:47:13.843Z,952.89
2016-03-21T05:48:13.847Z,952.88
2016-03-21T05:49:13.849Z,952.88
2016-03-21T05:50:13.866Z,952.89
2016-03-21T05:51:13.870Z,952.89
2016-03-21T05:52:13.888Z,952.84
2016-03-21T05:53:13.891Z,952.87
2016-03-21T05:54:13.924Z,952.86
2016-03-21T05:55:13.927Z,952.86
2016-03-21T05:56:13.930Z,952.88
2016-03-21T05:57:13.948Z,952.9
2016-03-21T05:58:13.951Z,952.94
2016-03-21T05:59:13.954Z,952.98
2016-03-21T06:00:13.971Z,952.94
2016-03-21T06:01:13.990Z,952.94
2016-03-21T06:02:13.992Z,952.94
2016-03-21T06:03:14.012Z,952.93
2016-03-21T06:04:14.014Z,952.96
2016-03-21T06:05:14.032Z,952.98
2016-03-21T06:06:14.034Z,952.98
2016-03-21T06:07:14.053Z,952.97
2016-03-21T06:08:14.056Z,953.02
2016-03-21T06:09:14.074Z,953.01
2016-03-21T06:10:14.078Z,953.07
2016-03-21T06:11:14.095Z,953.06
2016-03-21T06:12:14.098Z,953.09
2016-03-21T06:13:14.116Z,953.06
2016-03-21T06:14:14.119Z,953.06
2016-03-21T06:15:14.137Z,953.08
2016-03-21T06:16:14.139Z,953.06
2016-03-21T06:17:14.158Z,953.04
2016-03-21T06:18:14.161Z,953.06
2016-03-21T06:19:14.179Z,953.08
2016-03-21T06:20:14.182Z,953.1
2016-03-21T06:21:14.200Z,953.06
2016-03-21T06:22:14.203Z,953.04
2016-03-21T06:23:14.221Z,953.06
2016-03-21T06:24:14.240Z,953.07
2016-03-21T06:25:14.243Z,953.04
2016-03-21T06:26:14.246Z,953.09
2016-03-21T06:27:14.263Z,953.07
2016-03-21T06:28:14.281Z,953.09
2016-03-21T06:29:14.285Z,953.11
2016-03-21T06:30:14.287Z,953.1
2016-03-21T06:31:14.305Z,953.13
2016-03-21T06:32:14.324Z,953.08
2016-03-21T06:33:14.326Z,953.1
2016-03-21T06:34:14.345Z,953.11
2016-03-21T06:35:14.347Z,953.15
2016-03-21T06:36:14.365Z,953.11
2016-03-21T06:37:14.368Z,953.11
2016-03-21T06:38:14.403Z,953.11
2016-03-21T06:39:14.389Z,953.13
2016-03-21T06:40:14.408Z,953.09
2016-03-21T06:41:14.411Z,953.13
2016-03-21T06:42:14.428Z,953.11
2016-03-21T06:43:14.447Z,953.1
2016-03-21T06:44:14.450Z,953.11
2016-03-21T06:45:14.467Z,953.11
2016-03-21T06:46:14.470Z,953.09
2016-03-21T06:47:14.489Z,953.11
2016-03-21T06:48:14.492Z,953.13
2016-03-21T06:49:14.510Z,953.08
2016-03-21T06:50:14.513Z,953.09
2016-03-21T06:51:14.547Z,953.09
2016-03-21T06:52:14.534Z,953.15
2016-03-21T06:53:14.552Z,953.07
2016-03-21T06:54:14.555Z,953.1
2016-03-21T06:55:14.574Z,953.06
2016-03-21T06:56:14.576Z,953.07
2016-03-21T06:57:14.593Z,953.03
2016-03-21T06:58:14.597Z,953.01
2016-03-21T06:59:14.615Z,953.03
2016-03-21T07:00:14.618Z,953.04
2016-03-21T07:01:14.635Z,953.08
2016-03-21T07:02:14.654Z,953.05
2016-03-21T07:03:14.813Z,953.03
2016-03-21T07:04:14.675Z,953.06
2016-03-21T07:05:14.679Z,953.07
2016-03-21T07:06:14.696Z,953.06
2016-03-21T07:07:14.706Z,953.05
2016-03-21T07:08:14.725Z,953.07
2016-03-21T07:09:14.728Z,953.05
2016-03-21T07:10:14.731Z,953.05
2016-03-21T07:11:14.748Z,953.05
2016-03-21T07:12:14.767Z,953.06
2016-03-21T07:13:14.801Z,953.07
2016-03-21T07:14:14.788Z,953.13
2016-03-21T07:15:14.791Z,953.11
2016-03-21T07:16:14.808Z,953.14
2016-03-21T07:17:14.812Z,953.13
2016-03-21T07:18:14.830Z,953.16
2016-03-21T07:19:14.833Z,953.11
2016-03-21T07:20:14.867Z,953.12
2016-03-21T07:21:14.869Z,953.1
2016-03-21T07:22:14.872Z,953.09
2016-03-21T07:23:14.890Z,953.11
2016-03-21T07:24:14.894Z,953.09
2016-03-21T07:25:14.911Z,953.11
2016-03-21T07:26:14.913Z,953.12
2016-03-21T07:27:14.932Z,953.15
2016-03-21T07:28:14.951Z,953.16
2016-03-21T07:29:14.954Z,953.18
2016-03-21T07:30:14.971Z,953.18
2016-03-21T07:31:14.975Z,953.19
2016-03-21T07:32:14.993Z,953.18
2016-03-21T07:33:15.010Z,953.22
2016-03-21T07:34:15.013Z,953.2
2016-03-21T07:35:15.032Z,953.22
2016-03-21T07:36:15.034Z,953.22
2016-03-21T07:37:15.053Z,953.21
2016-03-21T07:38:15.056Z,953.2
2016-03-21T07:39:15.074Z,953.24
2016-03-21T07:40:15.092Z,953.24
2016-03-21T07:41:15.095Z,953.24
2016-03-21T07:42:15.114Z,953.23
2016-03-21T07:43:15.116Z,953.22
2016-03-21T07:44:15.134Z,953.27
2016-03-21T07:45:15.145Z,953.27
2016-03-21T07:46:15.134Z,953.25
2016-03-21T07:47:15.137Z,953.28
2016-03-21T07:48:15.127Z,953.23
2016-03-21T07:49:15.131Z,953.24
2016-03-21T07:50:15.142Z,953.23
2016-03-21T07:51:15.139Z,953.25
2016-03-21T07:52:15.151Z,953.25
2016-03-21T07:53:15.150Z,953.29
2016-03-21T07:54:15.163Z,953.24
2016-03-21T07:55:15.178Z,953.28
2016-03-21T07:56:15.194Z,953.28
2016-03-21T07:57:15.195Z,953.31
2016-03-21T07:58:15.195Z,953.33
2016-03-21T07:59:15.212Z,953.33
2016-03-21T08:00:15.229Z,953.3
2016-03-21T08:01:15.231Z,953.3
2016-03-21T08:02:15.249Z,953.28
2016-03-21T08:03:15.267Z,953.34
2016-03-21T08:04:15.269Z,953.33
2016-03-21T08:05:15.286Z,953.35
2016-03-21T08:06:15.288Z,953.33
2016-03-21T08:07:15.308Z,953.36
2016-03-21T08:08:15.310Z,953.37
2016-03-21T08:09:15.329Z,953.38
2016-03-21T08:10:15.346Z,953.38
2016-03-21T08:11:15.349Z,953.39
2016-03-21T08:12:15.368Z,953.43
2016-03-21T08:13:15.385Z,953.42
2016-03-21T08:14:15.389Z,953.44
2016-03-21T08:15:15.407Z,953.45
2016-03-21T08:16:15.409Z,953.45
2016-03-21T08:17:15.443Z,953.42
2016-03-21T08:18:15.446Z,953.43
2016-03-21T08:19:15.449Z,953.43
2016-03-21T08:20:15.467Z,953.43
2016-03-21T08:21:15.486Z,953.43
2016-03-21T08:22:15.489Z,953.43
2016-03-21T08:23:15.506Z,953.43
2016-03-21T08:24:15.525Z,953.45
2016-03-21T08:25:15.528Z,953.44
2016-03-21T08:26:18.031Z,953.45
2016-03-21T08:27:15.548Z,953.43
2016-03-21T08:28:15.567Z,953.42
2016-03-21T08:29:15.585Z,953.42
2016-03-21T08:30:15.588Z,953.39
2016-03-21T08:31:15.605Z,953.38
2016-03-21T08:32:15.609Z,953.45
2016-03-21T08:33:15.627Z,953.42
2016-03-21T08:34:15.646Z,953.41
2016-03-21T08:35:15.649Z,953.4
2016-03-21T08:36:15.667Z,953.47
2016-03-21T08:37:15.685Z,953.42
2016-03-21T08:38:15.687Z,953.39
2016-03-21T08:39:15.706Z,953.45
2016-03-21T08:40:15.724Z,953.41
2016-03-21T08:41:15.727Z,953.43
2016-03-21T08:42:15.745Z,953.42
2016-03-21T08:43:15.763Z,953.46
2016-03-21T08:44:15.766Z,953.46
2016-03-21T08:45:15.784Z,953.49
2016-03-21T08:46:15.804Z,953.48
2016-03-21T08:47:15.806Z,953.49
2016-03-21T08:48:15.824Z,953.51
2016-03-21T08:49:15.826Z,953.53
2016-03-21T08:50:15.860Z,953.5
2016-03-21T08:51:15.863Z,953.49
2016-03-21T08:52:15.865Z,953.52
2016-03-21T08:53:15.884Z,953.51
2016-03-21T08:54:15.903Z,953.56
2016-03-21T08:55:15.905Z,953.54
2016-03-21T08:56:15.924Z,953.54
2016-03-21T08:57:15.926Z,953.55
2016-03-21T08:58:15.945Z,953.57
2016-03-21T08:59:15.963Z,953.53
2016-03-21T09:00:15.997Z,953.56
2016-03-21T09:01:15.984Z,953.55
2016-03-21T09:02:16.002Z,953.51
2016-03-21T09:03:16.005Z,953.59
2016-03-21T09:04:16.022Z,953.54
2016-03-21T09:05:16.041Z,953.59
2016-03-21T09:06:16.044Z,953.58
2016-03-21T09:07:16.063Z,953.59
2016-03-21T09:08:16.081Z,953.57
2016-03-21T09:09:16.083Z,953.58
2016-03-21T09:10:16.102Z,953.57
2016-03-21T09:11:16.121Z,953.57
2016-03-21T09:12:16.123Z,953.57
2016-03-21T09:13:16.140Z,953.59
2016-03-21T09:14:16.160Z,953.56
2016-03-21T09:15:16.169Z,953.59
2016-03-21T09:16:16.172Z,953.57
2016-03-21T09:17:16.189Z,953.56
2016-03-21T09:18:16.193Z,953.57
2016-03-21T09:19:16.211Z,953.51
2016-03-21T09:20:16.229Z,953.55
2016-03-21T09:21:16.247Z,953.56
2016-03-21T09:22:16.250Z,953.55
2016-03-21T09:23:16.268Z,953.55
2016-03-21T09:24:16.272Z,953.52
2016-03-21T09:25:16.289Z,953.51
2016-03-21T09:26:16.308Z,953.51
2016-03-21T09:27:16.326Z,953.56
2016-03-21T09:28:16.329Z,953.56
2016-03-21T09:29:16.347Z,953.48
2016-03-21T09:30:16.349Z,953.52
2016-03-21T09:31:16.368Z,953.5
2016-03-21T09:32:16.387Z,953.52
2016-03-21T09:33:16.389Z,953.54
2016-03-21T09:34:16.424Z,953.52
2016-03-21T09:35:16.426Z,953.55
2016-03-21T09:36:16.429Z,953.5
2016-03-21T09:37:16.446Z,953.51
2016-03-21T09:38:16.465Z,953.49
2016-03-21T09:39:16.468Z,953.48
2016-03-21T09:40:16.486Z,953.52
2016-03-21T09:41:16.520Z,953.51
2016-03-21T09:42:16.506Z,953.47
2016-03-21T09:43:16.541Z,953.52
2016-03-21T09:44:16.544Z,953.53
2016-03-21T09:45:16.547Z,953.49
2016-03-21T09:46:16.581Z,953.54
2016-03-21T09:47:16.583Z,953.53
2016-03-21T09:48:16.586Z,953.51
2016-03-21T09:49:16.604Z,953.51
2016-03-21T09:50:16.622Z,953.47
2016-03-21T09:51:16.641Z,953.46
2016-03-21T09:52:16.644Z,953.47
2016-03-21T09:53:16.662Z,953.46
2016-03-21T09:54:16.664Z,953.46
2016-03-21T09:55:16.683Z,953.47
2016-03-21T09:56:16.701Z,953.49
2016-03-21T09:57:16.719Z,953.48
2016-03-21T09:58:16.721Z,953.46
2016-03-21T09:59:16.741Z,953.44
2016-03-21T10:00:16.758Z,953.45
2016-03-21T10:01:16.760Z,953.44
2016-03-21T10:02:16.779Z,953.45
2016-03-21T10:03:16.798Z,953.45
2016-03-21T10:04:16.816Z,953.41
2016-03-21T10:05:16.834Z,953.41
2016-03-21T10:06:16.854Z,953.43
2016-03-21T10:07:16.857Z,953.43
2016-03-21T10:08:16.859Z,953.42
2016-03-21T10:09:16.878Z,953.4
2016-03-21T10:10:16.896Z,953.38
2016-03-21T10:11:16.914Z,953.4
2016-03-21T10:12:16.916Z,953.37
2016-03-21T10:13:16.935Z,953.38
2016-03-21T10:14:16.953Z,953.38
2016-03-21T10:15:16.971Z,953.35
2016-03-21T10:16:16.974Z,953.36
2016-03-21T10:17:16.993Z,953.34
2016-03-21T10:18:17.011Z,953.35
2016-03-21T10:19:17.029Z,953.34
2016-03-21T10:20:17.032Z,953.34
2016-03-21T10:21:17.082Z,953.37
2016-03-21T10:22:17.068Z,953.41
2016-03-21T10:23:17.087Z,953.35
2016-03-21T10:24:17.090Z,953.33
2016-03-21T10:25:17.109Z,953.3
2016-03-21T10:26:17.126Z,953.28
2016-03-21T10:27:17.161Z,953.31
2016-03-21T10:28:17.163Z,953.31
2016-03-21T10:29:17.166Z,953.33
2016-03-21T10:30:17.183Z,953.32
2016-03-21T10:31:17.202Z,953.29
2016-03-21T10:32:17.220Z,953.3
2016-03-21T10:33:17.238Z,953.33
2016-03-21T10:34:17.258Z,953.27
2016-03-21T10:35:17.260Z,953.26
2016-03-21T10:36:17.325Z,953.28
2016-03-21T10:37:17.297Z,953.24
2016-03-21T10:38:17.315Z,953.25
2016-03-21T10:39:17.333Z,953.24
2016-03-21T10:40:17.352Z,953.27
2016-03-21T10:41:17.386Z,953.21
2016-03-21T10:42:17.372Z,953.22
2016-03-21T10:43:17.390Z,953.25
2016-03-21T10:44:17.409Z,953.26
2016-03-21T10:45:17.427Z,953.15
2016-03-21T10:46:17.446Z,953.19
2016-03-21T10:47:17.465Z,953.18
2016-03-21T10:48:17.482Z,953.16
2016-03-21T10:49:17.501Z,953.17
2016-03-21T10:50:17.503Z,953.16
2016-03-21T10:51:17.522Z,953.19
2016-03-21T10:52:17.540Z,953.16
2016-03-21T10:53:17.558Z,953.15
2016-03-21T10:54:17.576Z,953.16
2016-03-21T10:55:17.595Z,953.08
2016-03-21T10:56:17.613Z,953.1
2016-03-21T10:57:17.632Z,953.12
2016-03-21T10:58:17.650Z,953.09
2016-03-21T10:59:17.684Z,953.07
2016-03-21T11:00:17.686Z,953.09
2016-03-21T11:01:17.705Z,953.06
2016-03-21T11:02:17.723Z,953.01
2016-03-21T11:03:17.741Z,953.02
2016-03-21T11:04:17.760Z,953.1
2016-03-21T11:05:17.778Z,953.09
2016-03-21T11:06:17.796Z,953.09
2016-03-21T11:07:17.822Z,953.05
2016-03-21T11:08:17.825Z,953.07
2016-03-21T11:09:17.844Z,953.05
2016-03-21T11:10:17.862Z,953.04
2016-03-21T11:11:17.897Z,953.02
2016-03-21T11:12:17.899Z,953.01
2016-03-21T11:13:17.933Z,952.99
2016-03-21T11:14:17.935Z,953.01
2016-03-21T11:15:17.954Z,953.01
2016-03-21T11:16:17.988Z,952.99
2016-03-21T11:17:17.990Z,952.96
2016-03-21T11:18:18.023Z,952.94
2016-03-21T11:19:18.043Z,952.95
2016-03-21T11:20:18.060Z,952.94
2016-03-21T11:21:18.095Z,952.91
2016-03-21T11:22:18.098Z,952.89
2016-03-21T11:23:18.115Z,952.87
2016-03-21T11:24:18.134Z,952.91
2016-03-21T11:25:18.152Z,952.86
2016-03-21T11:26:18.187Z,952.88
2016-03-21T11:27:18.189Z,952.87
2016-03-21T11:28:18.206Z,952.83
2016-03-21T11:29:18.226Z,952.83
2016-03-21T11:30:18.244Z,952.83
2016-03-21T11:31:18.275Z,952.8
2016-03-21T11:32:18.466Z,952.8
2016-03-21T11:33:18.298Z,952.84
2016-03-21T11:34:18.327Z,952.76
2016-03-21T11:35:18.323Z,952.77
2016-03-21T11:36:18.358Z,952.8
2016-03-21T11:37:18.376Z,952.84
2016-03-21T11:38:18.395Z,952.83
2016-03-21T11:39:18.412Z,952.78
2016-03-21T11:40:18.446Z,952.78
2016-03-21T11:41:18.448Z,952.74
2016-03-21T11:42:18.468Z,952.69
2016-03-21T11:43:18.486Z,952.69
2016-03-21T11:44:18.504Z,952.71
2016-03-21T11:45:18.522Z,952.69
2016-03-21T11:46:18.541Z,952.66
2016-03-21T11:47:18.559Z,952.67
2016-03-21T11:48:18.577Z,952.69
2016-03-21T11:49:18.611Z,952.65
2016-03-21T11:50:18.614Z,952.59
2016-03-21T11:51:18.647Z,952.63
2016-03-21T11:52:18.666Z,952.59
2016-03-21T11:53:18.685Z,952.58
2016-03-21T11:54:18.702Z,952.56
2016-03-21T11:55:18.721Z,952.56
2016-03-21T11:56:18.739Z,952.56
2016-03-21T11:57:18.758Z,952.58
2016-03-21T11:58:18.791Z,952.55
2016-03-21T11:59:18.794Z,952.49
2016-03-21T12:00:18.813Z,952.5
2016-03-21T12:01:18.909Z,952.5
2016-03-21T12:02:18.850Z,952.51
2016-03-21T12:03:18.899Z,952.47
2016-03-21T12:04:18.885Z,952.52
2016-03-21T12:05:18.920Z,952.46
2016-03-21T12:06:18.938Z,952.41
2016-03-21T12:07:18.960Z,952.42
2016-03-21T12:08:18.964Z,952.4
2016-03-21T12:09:18.997Z,952.39
2016-03-21T12:10:19.016Z,952.38
2016-03-21T12:11:19.065Z,952.34
2016-03-21T12:12:19.068Z,952.35
2016-03-21T12:13:19.071Z,952.33
2016-03-21T12:14:19.088Z,952.35
2016-03-21T12:15:19.107Z,952.32
2016-03-21T12:16:19.125Z,952.33
2016-03-21T12:17:19.175Z,952.31
2016-03-21T12:18:19.163Z,952.3
2016-03-21T12:19:19.196Z,952.29
2016-03-21T12:20:19.198Z,952.29
2016-03-21T12:21:19.218Z,952.25
2016-03-21T12:22:19.251Z,952.24
2016-03-21T12:23:19.268Z,952.2
2016-03-21T12:24:19.287Z,952.23
2016-03-21T12:25:19.306Z,952.23
2016-03-21T12:26:19.323Z,952.22
2016-03-21T12:27:19.343Z,952.21
2016-03-21T12:28:19.361Z,952.2
2016-03-21T12:29:19.379Z,952.13
2016-03-21T12:30:19.398Z,952.16